Sunday, November 23, 2014
21:06 UTC
  |  Log In   |  Register Free
Airport Search:

Seattle-Tacoma International Airport
(KSEA)

FAA data valid effective November 13, 2014 - January 08, 2015 (unless otherwise noted).

 
 
 
 
 
 
 
 
 
 
 
 
 
 

Current Aviation Weather for Seattle-Tacoma International Airport (KSEA)

The most recent METAR observation for KSEA was updated at: 2026
METAR Summary (Translated METAR)
KSEA
231953Z 23007KT 10SM SCT012 SCT040 BKN100 11/08 A3012 RMK AO2 SLP208 T01110078
KRNT
231953Z 17009KT 10SM OVC018 11/08 A3012 RMK AO2 SLP204 T01110083
(4.6 nm NE from KSEA)
KBFI
231953Z 20006KT 10SM SCT019 SCT033 OVC100 12/08 A3011 RMK AO2 SLP196 T01220083
(4.9 nm NE from KSEA)
TAF Summary (Translated TAF)
KSEA
231747Z 2318/2424 21016G22KT P6SM VCSH SCT020 BKN040 TEMPO 2318/2319 5SM -SHRA BR SCT008 BKN020 OVC040 FM240300 20007KT P6SM SCT025 BKN040 FM240700 15007KT P6SM BKN040
KBFI
(4.9 nm NE from KSEA)
231747Z 2318/2418 18012G20KT P6SM VCSH SCT020 BKN040 TEMPO 2321/2401 -SHRA BKN020 OVC040 FM240300 17005KT P6SM SCT030 BKN045 FM240700 14005KT P6SM BKN045
  Airport Weather Conditions for KSEA

 Current Weather at SEA
52° F
Mostly Cloudy
Southwest winds at 8.1 mph
SEA NOAA Radar

Pressure: 30.12 in
Humidity: 80%
Wind: Southwest at 8.1 MPH (7 KT)
Dew Point: 46.0°F
Visibility: 10.00 mi


Airport Weather Forecast for KSEA

Translated METAR and TAF for KSEA
Translated METAR for KSEA (2101 UTC 23 November 2014)
found at http://aviationweather.gov/adds/metars/
 
METAR text: KSEA 232053Z 21012G20KT 10SM FEW012 SCT040 BKN180 12/07 A3013 RMK AO2 SLP209 T01170072 51008
Conditions at: KSEA (SEATTLE/METRO , WA, US) observed 2053 UTC 23 November 2014
Temperature: 11.7°C (53°F)
Dewpoint: 7.2°C (45°F) [RH = 74%]
Pressure (altimeter): 30.13 inches Hg (1020.4 mb)
[Sea-level pressure: 1020.9 mb]
Winds: from the SSW (210 degrees) at 14 MPH (12 knots; 6.2 m/s)
gusting to 23 MPH (20 knots; 10.4 m/s)
Visibility: 10 or more miles (16+ km)
Ceiling: 18000 feet AGL
Clouds: few clouds at 1200 feet AGL
scattered clouds at 4000 feet AGL
broken clouds at 18000 feet AGL
Weather: no significant weather observed at this time
Translated TAF for KSEA
Forecast for: KSEA (SEATTLE/METRO , WA, US)
TAF Text: KSEA 231747Z 2318/2424 21016G22KT P6SM VCSH SCT020 BKN040
Forecast period: 1800 UTC 23 November 2014 to 0300 UTC 24 November 2014
Forecast type: FROM: standard forecast or significant change
Winds: from the SSW (210 degrees) at 18 MPH (16 knots; 8.3 m/s)
gusting to 25 MPH (22 knots; 11.4 m/s)
Visibility: 6 or more miles (10+ km)
Ceiling: 4000 feet AGL
Clouds: scattered clouds at 2000 feet AGL
broken clouds at 4000 feet AGL
Weather: VCSH  (showers in vicinity)
TAF Text: TEMPO 2318/2319 5SM -SHRA BR SCT008 BKN020 OVC040
Forecast period: 1800 to 1900 UTC 23 November 2014
Forecast type: TEMPORARY: The following changes expected for less than half the time period
Visibility: 5 miles (8 km)
Ceiling: 2000 feet AGL
Clouds: scattered clouds at 800 feet AGL
broken clouds at 2000 feet AGL
overcast cloud deck at 4000 feet AGL
Weather: -SHRA BR  (light rain showers, mist)
TAF Text: FM240300 20007KT P6SM SCT025 BKN040
Forecast period: 0300 to 0700 UTC 24 November 2014
Forecast type: FROM: standard forecast or significant change
Winds: from the SSW (200 degrees) at 8 MPH (7 knots; 3.6 m/s)
Visibility: 6 or more miles (10+ km)
Ceiling: 4000 feet AGL
Clouds: scattered clouds at 2500 feet AGL
broken clouds at 4000 feet AGL
Weather: no significant weather forecast for this period
TAF Text: FM240700 15007KT P6SM BKN040
Forecast period: 0700 UTC 24 November 2014 to 0000 UTC 25 November 2014
Forecast type: FROM: standard forecast or significant change
Winds: from the SSE (150 degrees) at 8 MPH (7 knots; 3.6 m/s)
Visibility: 6 or more miles (10+ km)
Ceiling: 4000 feet AGL
Clouds: broken clouds at 4000 feet AGL
Weather: no significant weather forecast for this period

Find All Airport Services Find A Hotel Find A Rental Car Find A Golf Course Find A Restaurant $100 Hamburger



FBO's on the Field
FBO Company Facility Photos Services Transportation Aviation Fuel Prices: Prices include tax
Catering Weather Repair Courtesy Rental Type 100LL JetA JetA+ MOGAS 8087
 
Aircraft Service Intl.

This FBO has not yet been rated
FS:Avfuel
Last Updated: Nov-13
Login to update fuel prices
SS:
Contact Aircraft Service Intl.More FBO Information
 
Add another FBO Facility Photos Catering Weather Repair Courtesy Rental Type 100LL JetA JetA+ MOGAS 8087
Services Transportation Aviation Fuel Prices: Prices include tax


model-print
model-print
model-print
model-print